Time;durP1;ratioP1;P1;durP2;ratioP2;P2;SDS_P1;SDS_P2;PMS_P1;PMS_P2;Temp;Humidity;BMP_temperature;BMP_pressure;BME280_temperature;BME280_humidity;BME280_pressure;Samples;Min_cycle;Max_cycle;Signal;HPM_P1;HPM_P2
2022/06/04 00:00:29;;;;;;;10.43;6.47;;;16.00;99.90;;;;;;5087056;28;20456;-69
2022/06/04 00:02:55;;;;;;;12.70;5.80;;;16.00;99.90;;;;;;5091021;28;20032;-61
2022/06/04 00:05:25;;;;;;;14.57;6.60;;;16.00;99.90;;;;;;5083386;28;20035;-61
2022/06/04 00:07:51;;;;;;;12.07;5.93;;;16.00;99.90;;;;;;5084220;28;20114;-61
2022/06/04 00:15:52;;;;;;;8.88;5.78;;;16.10;99.90;;;;;;5076706;28;20036;-62
2022/06/04 00:18:20;;;;;;;13.00;6.00;;;16.00;99.90;;;;;;5088148;28;20036;-63
2022/06/04 00:20:46;;;;;;;11.15;6.28;;;16.00;99.90;;;;;;5084965;28;20032;-61
2022/06/04 00:23:12;;;;;;;9.82;6.30;;;16.10;99.90;;;;;;5088898;28;20070;-61
2022/06/04 00:25:42;;;;;;;12.35;6.63;;;16.10;99.90;;;;;;5082389;28;20035;-63
2022/06/04 00:28:09;;;;;;;14.00;5.88;;;16.00;99.90;;;;;;5081096;28;20638;-62
2022/06/04 00:30:36;;;;;;;10.00;5.85;;;15.90;99.90;;;;;;5084435;28;20133;-63
2022/06/04 00:33:01;;;;;;;10.15;5.50;;;15.80;99.90;;;;;;5087047;28;20141;-70
2022/06/04 00:35:27;;;;;;;14.98;6.40;;;15.80;99.90;;;;;;5078317;28;20131;-61
2022/06/04 00:37:54;;;;;;;14.60;6.45;;;15.70;99.90;;;;;;5088228;28;20043;-61
2022/06/04 00:40:46;;;;;;;11.85;6.28;;;15.70;99.90;;;;;;5080811;28;20036;-62
2022/06/04 00:43:12;;;;;;;10.43;6.10;;;15.80;99.90;;;;;;5088131;28;20481;-61
2022/06/04 00:45:56;;;;;;;12.38;6.07;;;15.80;99.90;;;;;;5089457;28;20052;-62
2022/06/04 00:48:22;;;;;;;11.88;7.07;;;15.60;99.90;;;;;;5082432;28;20033;-61
2022/06/04 00:50:48;;;;;;;10.45;6.82;;;15.50;99.90;;;;;;5082791;28;20047;-63
2022/06/04 00:53:14;;;;;;;10.68;6.90;;;15.60;99.90;;;;;;5088772;28;20083;-68
2022/06/04 00:55:52;;;;;;;11.85;6.10;;;15.60;99.90;;;;;;5088001;28;20066;-62
2022/06/04 00:58:47;;;;;;;10.23;6.03;;;15.60;99.90;;;;;;5086716;28;20474;-63
2022/06/04 01:01:24;;;;;;;11.10;6.85;;;15.60;99.90;;;;;;5082231;28;20029;-62
2022/06/04 01:04:47;;;;;;;11.95;6.60;;;15.50;99.90;;;;;;5069913;28;20418;-61
2022/06/04 01:07:31;;;;;;;14.63;6.47;;;15.30;99.90;;;;;;5080778;28;20058;-65
2022/06/04 01:10:20;;;;;;;11.93;6.63;;;15.30;99.90;;;;;;5087568;28;20098;-61
2022/06/04 01:12:49;;;;;;;12.90;7.00;;;15.40;99.90;;;;;;5085469;28;20062;-61
2022/06/04 01:15:43;;;;;;;13.88;7.22;;;15.20;99.90;;;;;;5086959;28;20406;-62
2022/06/04 01:18:41;;;;;;;12.52;7.07;;;15.10;99.90;;;;;;5083524;28;20028;-65
2022/06/04 01:21:29;;;;;;;13.60;6.97;;;15.10;99.90;;;;;;5080868;28;20119;-60
2022/06/04 01:24:21;;;;;;;15.48;6.63;;;15.20;99.90;;;;;;5085116;28;20661;-63
2022/06/04 01:26:55;;;;;;;12.43;6.50;;;15.20;99.90;;;;;;5077374;28;20028;-61
2022/06/04 01:29:36;;;;;;;13.23;6.32;;;15.10;99.90;;;;;;5081474;28;20032;-61
2022/06/04 01:32:29;;;;;;;10.77;6.05;;;15.00;99.90;;;;;;5090226;28;20020;-61
2022/06/04 01:35:07;;;;;;;11.15;7.28;;;15.00;99.90;;;;;;5075079;28;20040;-61
2022/06/04 01:37:56;;;;;;;12.90;6.90;;;14.90;99.90;;;;;;5087876;28;20032;-60
2022/06/04 01:43:18;;;;;;;12.48;7.32;;;14.70;99.90;;;;;;5085325;28;20043;-64
2022/06/04 01:45:45;;;;;;;14.65;7.53;;;14.80;99.90;;;;;;5086501;28;20047;-61
2022/06/04 01:48:13;;;;;;;12.43;7.25;;;14.80;99.90;;;;;;5084246;28;20153;-61
2022/06/04 01:50:45;;;;;;;11.88;6.38;;;14.80;99.90;;;;;;5070436;28;20063;-66
2022/06/04 01:53:12;;;;;;;13.27;6.55;;;14.80;99.90;;;;;;5079216;28;20025;-61
2022/06/04 01:55:51;;;;;;;10.95;6.72;;;14.70;99.90;;;;;;5089105;28;20036;-69
2022/06/04 01:58:54;;;;;;;10.80;6.72;;;14.80;99.90;;;;;;5083952;28;20462;-62
2022/06/04 02:01:28;;;;;;;11.88;7.18;;;14.80;99.90;;;;;;5079508;28;20040;-62
2022/06/04 02:04:12;;;;;;;11.57;6.80;;;14.80;99.90;;;;;;5085504;28;20063;-67
2022/06/04 02:07:29;;;;;;;12.10;7.63;;;14.80;99.90;;;;;;5076243;28;20046;-70
2022/06/04 02:09:35;;;;;;;10.68;7.10;;;14.80;99.90;;;;;;5076983;28;20401;-64
2022/06/04 02:12:04;;;;;;;11.98;7.45;;;14.70;99.90;;;;;;5081482;28;20059;-60
2022/06/04 02:14:30;;;;;;;13.45;7.68;;;14.80;99.90;;;;;;5079762;28;20550;-62
2022/06/04 02:17:06;;;;;;;10.77;7.18;;;14.70;99.90;;;;;;5088693;28;20055;-61
2022/06/04 02:19:32;;;;;;;12.35;7.88;;;14.70;99.90;;;;;;5085658;28;20470;-60
2022/06/04 02:21:58;;;;;;;12.38;6.90;;;14.70;99.90;;;;;;5083504;28;20150;-61
2022/06/04 02:24:24;;;;;;;10.23;6.97;;;14.70;99.90;;;;;;5074513;28;20406;-67
2022/06/04 02:26:50;;;;;;;13.27;6.45;;;14.60;99.90;;;;;;5085299;28;20033;-62
2022/06/04 02:29:17;;;;;;;10.07;6.35;;;14.40;99.90;;;;;;5080719;28;20170;-61
2022/06/04 02:32:12;;;;;;;11.18;6.50;;;14.40;99.90;;;;;;5077345;28;20020;-61
2022/06/04 02:35:22;;;;;;;13.15;6.78;;;14.50;99.90;;;;;;5069120;28;20040;-70
2022/06/04 02:38:05;;;;;;;15.73;7.15;;;14.50;99.90;;;;;;5077457;28;20044;-61
2022/06/04 02:40:51;;;;;;;14.27;6.85;;;14.40;99.90;;;;;;5088061;28;20031;-62
2022/06/04 02:43:32;;;;;;;10.90;6.45;;;14.40;99.90;;;;;;5081033;28;20024;-61
2022/06/04 02:46:13;;;;;;;;;;;14.30;99.90;;;;;;5068096;28;20714;-63
2022/06/04 02:49:01;;;;;;;12.60;6.53;;;14.30;99.90;;;;;;5095274;28;20688;-69
2022/06/04 02:51:45;;;;;;;9.70;6.22;;;14.20;99.90;;;;;;5094576;28;20042;-61
2022/06/04 02:54:18;;;;;;;9.90;6.57;;;14.20;99.90;;;;;;5107118;28;20116;-61
2022/06/04 02:56:46;;;;;;;9.95;6.50;;;14.10;99.90;;;;;;5105242;28;20058;-68
2022/06/04 02:59:15;;;;;;;12.45;7.60;;;14.20;99.90;;;;;;5102743;28;20473;-61
2022/06/04 03:01:44;;;;;;;14.15;6.40;;;14.30;99.90;;;;;;5094279;28;20079;-69
2022/06/04 03:04:11;;;;;;;10.82;7.05;;;14.30;99.90;;;;;;5098703;28;20129;-62
2022/06/04 03:06:37;;;;;;;13.65;6.97;;;14.30;99.90;;;;;;5097053;28;20028;-61
2022/06/04 03:09:16;;;;;;;12.23;6.72;;;14.40;99.90;;;;;;5096734;28;20032;-61
2022/06/04 03:11:47;;;;;;;13.35;7.13;;;14.30;99.90;;;;;;5108703;28;20027;-69
2022/06/04 03:14:14;;;;;;;11.85;7.15;;;14.20;99.90;;;;;;5105041;28;20028;-61
2022/06/04 03:16:44;;;;;;;11.00;6.72;;;14.40;99.90;;;;;;5096697;28;20040;-69
2022/06/04 03:19:10;;;;;;;16.23;7.28;;;14.40;99.90;;;;;;5099632;28;20040;-62
2022/06/04 03:21:37;;;;;;;11.88;7.18;;;14.40;99.90;;;;;;5106329;28;20054;-62
2022/06/04 03:24:04;;;;;;;10.98;6.90;;;14.30;99.90;;;;;;5106180;28;20031;-62
2022/06/04 03:26:30;;;;;;;12.27;7.00;;;14.10;99.90;;;;;;5103546;28;20490;-61
2022/06/04 03:28:56;;;;;;;13.43;6.47;;;14.10;99.90;;;;;;5104423;28;20043;-61
2022/06/04 03:31:22;;;;;;;11.23;6.50;;;14.10;99.90;;;;;;5101854;28;20032;-60
2022/06/04 03:33:48;;;;;;;15.20;7.78;;;14.10;99.90;;;;;;5104979;28;20036;-62
2022/06/04 03:36:14;;;;;;;10.45;6.97;;;14.10;99.90;;;;;;5096772;28;20093;-62
2022/06/04 03:38:40;;;;;;;11.25;7.32;;;14.20;99.90;;;;;;5095484;28;20039;-62
2022/06/04 03:41:05;;;;;;;10.25;7.07;;;14.10;99.90;;;;;;5110586;28;20078;-61
2022/06/04 03:43:31;;;;;;;11.43;6.70;;;14.10;99.90;;;;;;5109607;28;20046;-66
2022/06/04 03:45:57;;;;;;;10.73;6.65;;;13.90;99.90;;;;;;5091534;28;20060;-61
2022/06/04 03:48:22;;;;;;;12.48;6.40;;;14.00;99.90;;;;;;5105889;28;20023;-61
2022/06/04 03:50:49;;;;;;;11.07;7.15;;;14.10;99.90;;;;;;5109385;28;20027;-62
2022/06/04 03:53:15;;;;;;;13.07;6.80;;;14.10;99.90;;;;;;5110096;28;20042;-63
2022/06/04 03:55:40;;;;;;;12.15;6.75;;;14.10;99.90;;;;;;5105958;28;20124;-62
2022/06/04 03:58:06;;;;;;;9.45;6.35;;;14.20;99.90;;;;;;5108451;28;20028;-62
2022/06/04 04:00:41;;;;;;;11.18;6.55;;;14.30;99.90;;;;;;5109226;28;20527;-62
2022/06/04 04:03:13;;;;;;;14.40;6.30;;;14.40;99.90;;;;;;5101808;28;20427;-61
2022/06/04 04:05:44;;;;;;;13.63;7.10;;;14.40;99.90;;;;;;5111155;28;20035;-63
2022/06/04 04:08:10;;;;;;;11.82;6.93;;;14.40;99.90;;;;;;5108808;28;20040;-63
2022/06/04 04:10:38;;;;;;;11.85;6.60;;;14.40;99.90;;;;;;5110376;28;20085;-61
2022/06/04 04:13:05;;;;;;;15.25;7.03;;;14.50;99.90;;;;;;5108826;28;20687;-68
2022/06/04 04:15:30;;;;;;;12.82;6.88;;;14.40;99.90;;;;;;5110055;28;20050;-62
2022/06/04 04:17:56;;;;;;;13.60;7.07;;;14.30;99.90;;;;;;5101555;28;20393;-61
2022/06/04 04:20:28;;;;;;;13.98;6.78;;;14.30;99.90;;;;;;5100212;28;20024;-62
2022/06/04 04:22:54;;;;;;;12.75;7.00;;;14.10;99.90;;;;;;5099832;28;20028;-61
2022/06/04 04:25:23;;;;;;;8.68;5.85;;;14.10;99.90;;;;;;5105366;27;20039;-61
2022/06/04 04:27:49;;;;;;;13.90;6.97;;;14.20;99.90;;;;;;5107107;27;20035;-64
2022/06/04 04:30:17;;;;;;;11.32;7.00;;;14.40;99.90;;;;;;5106688;28;20085;-63
2022/06/04 04:32:43;;;;;;;10.90;6.80;;;14.60;99.90;;;;;;5104026;28;20080;-61
2022/06/04 04:35:13;;;;;;;15.73;7.25;;;14.80;99.90;;;;;;5106690;28;20036;-63
2022/06/04 04:37:39;;;;;;;12.93;6.72;;;14.90;99.90;;;;;;5097270;28;20080;-62
2022/06/04 04:40:05;;;;;;;11.80;6.70;;;14.90;99.90;;;;;;5108006;28;20652;-62
2022/06/04 04:42:31;;;;;;;11.07;6.70;;;15.00;99.90;;;;;;5108081;28;20068;-61
2022/06/04 04:44:57;;;;;;;17.25;6.88;;;15.20;99.90;;;;;;5108174;28;20130;-62
2022/06/04 04:47:23;;;;;;;11.85;6.93;;;15.30;99.90;;;;;;5109755;28;20043;-61
2022/06/04 04:49:49;;;;;;;13.23;6.93;;;15.20;99.90;;;;;;5108026;28;21104;-69
2022/06/04 04:52:14;;;;;;;10.75;6.85;;;15.20;99.90;;;;;;5095473;28;20448;-63
2022/06/04 04:54:40;;;;;;;14.68;7.80;;;15.20;99.90;;;;;;5092523;28;20031;-64
2022/06/04 04:57:06;;;;;;;12.32;8.18;;;15.30;99.90;;;;;;5092716;28;20115;-65
2022/06/04 04:59:32;;;;;;;15.05;7.75;;;15.40;99.90;;;;;;5102963;28;20052;-64
2022/06/04 05:01:57;;;;;;;11.85;7.10;;;15.60;99.90;;;;;;5090590;28;20028;-61
2022/06/04 05:04:23;;;;;;;13.57;7.28;;;15.80;99.90;;;;;;5101887;28;20028;-64
2022/06/04 05:06:49;;;;;;;14.65;8.55;;;15.90;99.90;;;;;;5101204;28;20077;-69
2022/06/04 05:09:15;;;;;;;12.45;8.13;;;16.00;99.90;;;;;;5110929;28;20468;-63
2022/06/04 05:11:40;;;;;;;14.07;8.18;;;16.10;99.90;;;;;;5101941;28;20032;-61
2022/06/04 05:14:06;;;;;;;15.35;8.48;;;16.20;99.90;;;;;;5096897;28;20119;-62
2022/06/04 05:16:35;;;;;;;11.77;7.95;;;16.30;99.90;;;;;;5096376;28;20473;-62
2022/06/04 05:19:03;;;;;;;17.85;8.90;;;16.30;99.90;;;;;;5102336;28;20471;-61
2022/06/04 05:21:47;;;;;;;16.02;8.20;;;16.40;99.90;;;;;;5102395;28;20165;-64
2022/06/04 05:24:22;;;;;;;17.30;8.23;;;16.50;99.90;;;;;;5098360;28;20034;-62
2022/06/04 05:26:50;;;;;;;15.05;8.55;;;16.60;99.90;;;;;;5092784;28;20546;-69
2022/06/04 05:29:16;;;;;;;13.30;7.75;;;16.70;99.90;;;;;;5101493;28;20031;-62
2022/06/04 05:31:43;;;;;;;12.95;7.38;;;16.80;99.90;;;;;;5099178;28;20477;-68
2022/06/04 05:34:10;;;;;;;11.90;7.30;;;17.10;99.90;;;;;;5096551;28;20196;-67
2022/06/04 05:36:37;;;;;;;10.48;6.60;;;17.50;99.90;;;;;;5093207;28;20552;-62
2022/06/04 05:39:05;;;;;;;10.90;6.53;;;17.90;99.90;;;;;;5094678;28;20081;-60
2022/06/04 05:41:31;;;;;;;12.95;7.15;;;18.30;99.90;;;;;;5099783;28;20023;-62
2022/06/04 05:43:57;;;;;;;10.02;6.80;;;18.60;99.90;;;;;;5105645;28;20521;-61
2022/06/04 05:46:23;;;;;;;11.65;6.80;;;18.80;99.90;;;;;;5098996;28;20170;-63
2022/06/04 05:48:49;;;;;;;11.27;7.25;;;18.90;99.90;;;;;;5100629;28;20070;-69
2022/06/04 05:51:26;;;;;;;13.07;7.20;;;19.00;99.90;;;;;;5101509;28;20039;-62
2022/06/04 05:53:52;;;;;;;13.80;7.18;;;18.70;99.90;;;;;;5103618;28;20036;-69
2022/06/04 05:56:24;;;;;;;15.13;7.68;;;18.60;99.90;;;;;;5098947;28;20055;-62
2022/06/04 05:58:52;;;;;;;12.88;7.80;;;18.40;99.90;;;;;;5101221;28;20032;-69
2022/06/04 06:01:21;;;;;;;11.32;7.50;;;18.30;99.90;;;;;;5095341;28;20131;-62
2022/06/04 06:03:47;;;;;;;13.85;6.95;;;18.20;99.90;;;;;;5102151;28;20032;-62
2022/06/04 06:06:18;;;;;;;11.68;7.75;;;18.10;99.90;;;;;;5109089;28;20096;-61
2022/06/04 06:08:44;;;;;;;12.75;7.53;;;18.00;99.90;;;;;;5105626;28;20019;-62
2022/06/04 06:11:12;;;;;;;14.85;8.15;;;17.90;99.90;;;;;;5100762;28;20040;-62
2022/06/04 06:13:38;;;;;;;13.70;7.65;;;17.80;99.90;;;;;;5096481;28;20114;-62
2022/06/04 06:16:11;;;;;;;11.35;7.65;;;17.70;99.90;;;;;;5102036;28;20035;-64
2022/06/04 06:18:37;;;;;;;10.57;7.47;;;17.70;99.90;;;;;;5105844;28;20066;-61
2022/06/04 06:21:12;;;;;;;17.52;7.97;;;17.70;99.90;;;;;;5104994;28;20058;-63
2022/06/04 06:23:39;;;;;;;10.77;7.32;;;17.70;99.90;;;;;;5098369;28;20023;-69
2022/06/04 06:26:06;;;;;;;13.93;7.80;;;17.80;99.90;;;;;;5104184;28;20548;-62
2022/06/04 06:28:36;;;;;;;13.40;7.80;;;17.70;99.90;;;;;;5106098;27;20117;-69
2022/06/04 06:31:02;;;;;;;14.88;7.20;;;17.80;99.90;;;;;;5102484;28;20058;-61
2022/06/04 06:33:29;;;;;;;11.02;7.60;;;17.80;99.90;;;;;;5097352;28;20466;-65
2022/06/04 06:36:00;;;;;;;12.20;7.43;;;17.90;99.90;;;;;;5106626;28;20484;-69
2022/06/04 06:38:26;;;;;;;11.32;7.10;;;18.00;99.90;;;;;;5109353;28;20076;-63
2022/06/04 06:40:54;;;;;;;9.52;6.32;;;18.10;99.90;;;;;;5108732;28;20027;-69
2022/06/04 06:43:20;;;;;;;12.85;7.57;;;18.20;99.90;;;;;;5108302;28;20031;-62
2022/06/04 06:45:46;;;;;;;12.48;7.80;;;18.30;99.90;;;;;;5107602;28;20084;-62
2022/06/04 06:48:12;;;;;;;11.07;7.32;;;18.50;99.90;;;;;;5108535;28;20078;-62
2022/06/04 06:50:39;;;;;;;9.90;7.25;;;18.50;99.90;;;;;;5107321;28;20520;-63
2022/06/04 06:53:05;;;;;;;11.15;7.88;;;18.40;99.90;;;;;;5107301;28;20066;-64
2022/06/04 06:55:30;;;;;;;17.17;8.98;;;18.30;99.90;;;;;;5101760;28;20042;-62
2022/06/04 06:57:56;;;;;;;15.00;9.80;;;18.20;99.90;;;;;;5094027;28;20032;-69
2022/06/04 07:00:22;;;;;;;21.08;8.85;;;18.00;99.90;;;;;;5097009;28;20024;-61
2022/06/04 07:02:51;;;;;;;15.50;9.18;;;18.00;99.90;;;;;;5091016;28;20032;-64
2022/06/04 07:05:17;;;;;;;13.18;7.90;;;18.00;99.90;;;;;;5098034;28;20566;-61
2022/06/04 07:07:42;;;;;;;14.52;7.82;;;18.00;99.90;;;;;;5100122;28;20056;-62
2022/06/04 07:10:10;;;;;;;13.00;8.43;;;17.90;99.90;;;;;;5088834;28;20023;-67
2022/06/04 07:12:36;;;;;;;14.45;8.13;;;17.90;99.90;;;;;;5097926;28;20035;-62
2022/06/04 07:15:02;;;;;;;13.82;8.70;;;17.80;99.90;;;;;;5106113;28;20035;-61
2022/06/04 07:17:28;;;;;;;13.80;8.77;;;17.80;99.90;;;;;;5104397;28;20465;-62
2022/06/04 07:19:54;;;;;;;19.45;8.80;;;17.80;99.90;;;;;;5103079;28;20045;-67
2022/06/04 07:22:20;;;;;;;12.20;8.27;;;17.70;99.90;;;;;;5098899;28;20035;-64
2022/06/04 07:24:46;;;;;;;15.27;8.40;;;17.60;99.90;;;;;;5097679;28;20393;-62
2022/06/04 07:27:11;;;;;;;17.00;7.78;;;17.50;99.90;;;;;;5102656;28;20112;-61
2022/06/04 07:29:37;;;;;;;15.38;8.30;;;17.50;99.90;;;;;;5103255;28;20419;-61
2022/06/04 07:32:04;;;;;;;11.73;8.48;;;17.50;99.90;;;;;;5096106;28;20055;-63
2022/06/04 07:34:30;;;;;;;17.02;8.52;;;17.50;99.90;;;;;;5103349;28;20039;-68
2022/06/04 07:36:56;;;;;;;12.57;8.45;;;17.50;99.90;;;;;;5097340;28;20032;-69
2022/06/04 07:39:22;;;;;;;13.73;7.95;;;17.50;99.90;;;;;;5105132;28;20032;-65
2022/06/04 07:41:52;;;;;;;13.35;7.95;;;17.60;99.90;;;;;;5106288;28;20032;-66
2022/06/04 07:44:19;;;;;;;15.27;8.45;;;17.70;99.90;;;;;;5100614;28;20791;-62
2022/06/04 07:46:47;;;;;;;15.13;9.30;;;17.80;99.90;;;;;;5105895;28;20036;-62
2022/06/04 07:49:13;;;;;;;17.45;8.90;;;17.90;99.90;;;;;;5107395;28;20031;-60
2022/06/04 07:51:41;;;;;;;12.68;8.50;;;17.80;99.90;;;;;;5104468;28;20031;-62
2022/06/04 07:54:10;;;;;;;12.75;8.98;;;17.80;99.90;;;;;;5097264;28;20061;-61
2022/06/04 07:56:37;;;;;;;13.43;8.23;;;17.90;99.90;;;;;;5101736;28;20031;-61
2022/06/04 07:59:05;;;;;;;14.80;9.63;;;18.10;99.90;;;;;;5096408;28;20036;-62
2022/06/04 08:01:31;;;;;;;15.15;9.10;;;18.20;99.90;;;;;;5104959;28;20058;-61
2022/06/04 08:03:57;;;;;;;12.80;8.38;;;18.30;99.90;;;;;;5109565;28;20456;-67
2022/06/04 08:06:23;;;;;;;18.40;11.30;;;18.40;99.90;;;;;;5092016;28;20032;-60
2022/06/04 08:08:50;;;;;;;19.40;10.52;;;18.50;99.90;;;;;;5096207;28;20758;-65
2022/06/04 08:11:32;;;;;;;14.23;8.02;;;18.60;99.90;;;;;;5089324;28;20141;-60
2022/06/04 08:14:17;;;;;;;12.52;8.18;;;18.50;99.90;;;;;;5102192;28;20107;-68
2022/06/04 08:16:46;;;;;;;12.93;8.05;;;18.50;99.90;;;;;;5108801;28;20039;-61
2022/06/04 08:19:13;;;;;;;11.50;7.78;;;18.70;99.90;;;;;;5104068;28;20445;-60
2022/06/04 08:21:40;;;;;;;15.07;8.25;;;18.90;99.90;;;;;;5109601;28;20030;-65
2022/06/04 08:24:08;;;;;;;15.90;8.10;;;19.10;99.90;;;;;;5107244;28;20024;-61
2022/06/04 08:26:34;;;;;;;12.85;8.10;;;19.30;99.90;;;;;;5099116;28;20062;-60
2022/06/04 08:28:59;;;;;;;11.68;8.38;;;19.30;99.90;;;;;;5104952;28;20055;-67
2022/06/04 08:31:25;;;;;;;12.73;8.90;;;19.40;99.90;;;;;;5102795;28;20028;-63
2022/06/04 08:33:51;;;;;;;16.25;8.70;;;19.50;99.90;;;;;;5098259;28;20496;-61
2022/06/04 08:36:17;;;;;;;13.57;8.38;;;19.40;99.90;;;;;;5108897;28;20024;-60
2022/06/04 08:38:43;;;;;;;19.35;8.90;;;19.40;99.90;;;;;;5100101;28;20027;-60
2022/06/04 08:41:39;;;;;;;13.48;8.73;;;19.50;99.90;;;;;;5098105;28;20035;-64
2022/06/04 08:44:15;;;;;;;15.43;8.30;;;19.50;99.90;;;;;;5088744;28;20051;-61
2022/06/04 08:46:50;;;;;;;14.85;8.25;;;19.50;99.90;;;;;;5104888;28;20036;-61
2022/06/04 08:49:31;;;;;;;17.58;8.55;;;19.80;99.90;;;;;;5107644;28;20026;-64
2022/06/04 08:52:08;;;;;;;16.27;8.60;;;19.80;99.90;;;;;;5102651;28;20110;-61
2022/06/04 08:57:35;;;;;;;18.48;9.40;;;19.70;99.90;;;;;;5101205;28;20051;-61
2022/06/04 09:00:10;;;;;;;15.68;10.23;;;19.70;99.90;;;;;;5101677;28;20020;-68
2022/06/04 09:02:44;;;;;;;14.68;9.18;;;19.80;99.90;;;;;;5093105;28;20426;-62
2022/06/04 09:05:59;;;;;;;13.77;9.57;;;20.10;99.90;;;;;;5094329;28;20035;-62
2022/06/04 09:09:03;;;;;;;13.93;9.57;;;20.40;99.90;;;;;;5084362;28;20118;-64
2022/06/04 09:11:54;;;;;;;15.05;9.27;;;20.40;99.90;;;;;;5095218;28;20036;-63
2022/06/04 09:14:31;;;;;;;14.48;9.70;;;20.00;99.90;;;;;;5098994;28;20042;-63
2022/06/04 09:17:13;;;;;;;17.23;10.48;;;19.80;99.90;;;;;;5103448;28;20092;-62
2022/06/04 09:19:41;;;;;;;16.95;9.30;;;20.00;99.90;;;;;;5108449;28;20040;-63
2022/06/04 09:22:19;;;;;;;15.45;9.13;;;20.60;99.90;;;;;;5100613;28;20019;-61
2022/06/04 09:24:45;;;;;;;13.70;9.20;;;21.30;99.90;;;;;;5106963;28;20418;-63
2022/06/04 09:27:35;;;;;;;16.20;10.43;;;21.40;99.90;;;;;;5101155;28;20110;-62
2022/06/04 09:32:53;;;;;;;12.60;9.00;;;21.30;99.90;;;;;;5063966;23;20056;-62
2022/06/04 09:35:26;;;;;;;16.35;9.95;;;21.20;99.90;;;;;;5068034;28;20047;-65
2022/06/04 09:37:55;;;;;;;14.75;8.75;;;21.20;99.90;;;;;;5070162;28;20487;-63
2022/06/04 09:40:28;;;;;;;15.15;10.20;;;21.50;99.90;;;;;;5068834;28;20107;-63
2022/06/04 09:43:17;;;;;;;16.38;8.52;;;21.90;99.90;;;;;;5068597;28;20420;-66
2022/06/04 09:45:52;;;;;;;11.40;8.43;;;22.20;99.90;;;;;;5068838;28;20029;-61
2022/06/04 09:48:28;;;;;;;13.68;9.45;;;22.20;99.90;;;;;;5068356;28;20025;-63
2022/06/04 09:50:57;;;;;;;14.18;9.45;;;22.00;99.90;;;;;;5068494;28;20036;-62
2022/06/04 09:53:41;;;;;;;13.93;9.55;;;22.00;99.90;;;;;;5068640;28;20109;-61
2022/06/04 09:56:16;;;;;;;14.82;8.75;;;22.00;99.90;;;;;;5068393;28;20051;-69
2022/06/04 09:58:45;;;;;;;16.98;10.77;;;21.90;99.90;;;;;;5069367;28;20068;-62
2022/06/04 10:01:14;;;;;;;13.77;9.63;;;21.80;99.90;;;;;;5066104;28;20177;-62
2022/06/04 10:03:40;;;;;;;13.57;10.05;;;21.80;99.90;;;;;;5069267;28;20060;-63
2022/06/04 10:06:12;;;;;;;16.00;10.75;;;21.70;99.90;;;;;;5068636;28;20469;-68
2022/06/04 10:11:33;;;;;;;14.30;8.55;;;21.80;99.90;;;;;;5065435;28;20043;-63
2022/06/04 10:13:59;;;;;;;15.50;9.65;;;22.30;99.90;;;;;;5048977;28;20140;-63
2022/06/04 10:16:29;;;;;;;12.88;9.05;;;22.70;99.90;;;;;;5048009;28;20029;-63
2022/06/04 10:19:18;;;;;;;13.48;9.60;;;22.90;99.90;;;;;;5061736;28;20525;-63
2022/06/04 10:21:49;;;;;;;14.32;9.63;;;23.30;99.90;;;;;;5067219;28;20028;-63
2022/06/04 10:24:27;;;;;;;16.15;10.40;;;23.30;99.90;;;;;;5048340;28;20091;-64
2022/06/04 10:27:08;;;;;;;16.27;9.13;;;23.40;99.90;;;;;;5048790;28;20087;-62
2022/06/04 10:29:52;;;;;;;17.65;9.40;;;23.40;99.90;;;;;;5048753;28;20116;-62
2022/06/04 10:32:39;;;;;;;15.25;9.65;;;23.30;99.90;;;;;;5058494;28;20052;-64
2022/06/04 10:35:28;;;;;;;15.32;9.73;;;23.00;99.90;;;;;;5068167;28;20047;-68
2022/06/04 10:38:23;;;;;;;16.88;9.98;;;22.60;99.90;;;;;;5068711;28;20043;-63
2022/06/04 10:41:26;;;;;;;15.00;9.48;;;22.20;99.90;;;;;;5057799;28;20482;-63
2022/06/04 10:44:15;;;;;;;14.07;9.50;;;21.80;99.90;;;;;;5064969;28;20039;-62
2022/06/04 10:47:26;;;;;;;15.93;9.45;;;21.60;99.90;;;;;;5068578;28;20020;-62
2022/06/04 10:50:15;;;;;;;16.20;9.95;;;21.30;99.90;;;;;;5068621;28;20036;-62
2022/06/04 10:52:46;;;;;;;12.77;9.47;;;21.10;99.90;;;;;;5067863;28;20569;-62
2022/06/04 10:55:41;;;;;;;15.45;9.70;;;21.00;99.90;;;;;;5067963;28;20278;-62
2022/06/04 10:58:29;;;;;;;17.85;9.82;;;20.90;99.90;;;;;;5067713;28;20028;-68
2022/06/04 11:01:23;;;;;;;14.27;9.48;;;20.90;99.90;;;;;;5067860;28;20090;-62
2022/06/04 11:03:52;;;;;;;15.52;9.45;;;20.70;99.90;;;;;;5068268;28;20035;-63
2022/06/04 11:06:35;;;;;;;14.10;9.37;;;20.70;99.90;;;;;;5064477;28;20482;-63
2022/06/04 11:09:08;;;;;;;15.80;9.07;;;20.70;99.90;;;;;;5068423;28;20383;-62
2022/06/04 11:11:51;;;;;;;18.95;9.82;;;20.80;99.90;;;;;;5068125;28;20028;-64
2022/06/04 11:14:40;;;;;;;13.55;9.18;;;20.90;99.90;;;;;;5067683;28;20024;-62
2022/06/04 11:17:34;;;;;;;12.50;8.57;;;21.00;99.90;;;;;;5067588;28;20382;-62
2022/06/04 11:20:13;;;;;;;12.20;8.60;;;21.10;99.90;;;;;;5067441;28;20029;-63
2022/06/04 11:22:44;;;;;;;14.45;8.75;;;21.20;99.90;;;;;;5058220;28;20017;-63
2022/06/04 11:25:32;;;;;;;13.10;8.68;;;21.20;99.90;;;;;;5065793;28;20382;-69
2022/06/04 11:28:05;;;;;;;12.48;8.60;;;21.20;99.90;;;;;;5067120;28;20108;-64
2022/06/04 11:30:56;;;;;;;15.10;10.05;;;21.20;99.90;;;;;;5067557;28;20494;-62
2022/06/04 11:33:44;;;;;;;15.07;9.80;;;21.20;99.90;;;;;;5066214;28;20032;-62
2022/06/04 11:36:32;;;;;;;17.25;9.52;;;21.10;99.90;;;;;;5067988;28;20041;-69
2022/06/04 11:39:21;;;;;;;12.27;9.27;;;21.20;99.90;;;;;;5068253;28;20051;-63
2022/06/04 11:41:50;;;;;;;15.52;10.90;;;21.10;99.90;;;;;;5065727;28;20032;-61
2022/06/04 11:44:42;;;;;;;16.83;11.88;;;21.10;99.90;;;;;;5067361;28;20038;-62
2022/06/04 11:47:08;;;;;;;15.30;9.13;;;21.00;99.90;;;;;;5068193;28;20692;-61
2022/06/04 11:49:59;;;;;;;18.60;9.38;;;20.90;99.90;;;;;;5049235;28;20025;-62
2022/06/04 11:52:31;;;;;;;64.18;31.85;;;20.80;99.90;;;;;;5065903;28;20085;-62
2022/06/04 11:55:09;;;;;;;57.67;29.13;;;20.90;99.90;;;;;;5068055;28;20116;-61
2022/06/04 11:58:18;;;;;;;40.20;23.08;;;21.20;99.90;;;;;;5067469;28;20040;-64
2022/06/04 12:00:46;;;;;;;43.47;25.98;;;21.70;99.90;;;;;;5070898;28;20036;-68
2022/06/04 12:03:32;;;;;;;34.40;19.52;;;21.90;99.90;;;;;;5070217;28;20036;-68
2022/06/04 12:06:25;;;;;;;19.23;12.40;;;21.90;99.90;;;;;;5071658;28;20467;-61
2022/06/04 12:09:23;;;;;;;15.05;10.35;;;22.10;99.90;;;;;;5062803;28;20029;-62
2022/06/04 12:11:59;;;;;;;22.60;13.48;;;22.10;99.90;;;;;;5049003;28;20039;-66
2022/06/04 12:15:01;;;;;;;30.88;18.05;;;22.10;99.90;;;;;;5070557;28;20024;-62
2022/06/04 12:17:37;;;;;;;14.45;9.52;;;22.20;99.90;;;;;;5070620;28;20021;-62
2022/06/04 12:26:26;;;;;;;11.18;8.27;;;22.40;99.90;;;;;;5069082;28;20070;-62
2022/06/04 12:28:53;;;;;;;13.57;8.48;;;22.40;99.90;;;;;;5071097;28;20054;-62
2022/06/04 12:31:36;;;;;;;15.73;10.23;;;22.50;99.90;;;;;;5068921;28;20509;-64
2022/06/04 12:34:20;;;;;;;19.65;12.70;;;22.60;99.90;;;;;;5070738;28;20432;-61
2022/06/04 12:36:52;;;;;;;23.13;15.75;;;22.40;99.90;;;;;;5070718;28;20112;-61
2022/06/04 12:39:49;;;;;;;32.10;18.98;;;22.50;99.90;;;;;;5069937;28;20657;-62
2022/06/04 12:42:23;;;;;;;22.65;15.73;;;22.50;99.90;;;;;;5057044;28;20569;-68
2022/06/04 12:45:25;;;;;;;22.95;14.27;;;22.60;99.90;;;;;;5070778;28;20032;-62
2022/06/04 12:47:58;;;;;;;21.98;14.55;;;22.70;99.90;;;;;;5070579;28;20099;-62
2022/06/04 12:50:34;;;;;;;20.45;13.57;;;22.70;99.90;;;;;;5069844;28;20025;-63
2022/06/04 12:53:07;;;;;;;27.85;18.90;;;22.60;99.90;;;;;;5069671;28;20038;-65
2022/06/04 12:55:44;;;;;;;24.27;15.18;;;22.70;99.90;;;;;;5069785;28;20037;-62
2022/06/04 12:58:32;;;;;;;20.75;14.25;;;22.80;99.90;;;;;;5070680;28;20028;-62
2022/06/04 13:01:02;;;;;;;19.30;13.27;;;22.80;99.90;;;;;;5069327;28;20040;-67
2022/06/04 13:03:33;;;;;;;20.35;13.77;;;22.80;99.90;;;;;;5069705;28;20040;-62
2022/06/04 13:06:49;;;;;;;18.67;13.07;;;22.90;99.90;;;;;;5070367;28;20485;-65
2022/06/04 13:09:42;;;;;;;21.45;14.25;;;22.80;99.90;;;;;;5052173;28;20482;-69
2022/06/04 13:12:14;;;;;;;24.42;15.63;;;22.80;99.90;;;;;;5069078;28;20024;-66
2022/06/04 13:14:49;;;;;;;20.35;14.63;;;22.80;99.90;;;;;;5051740;28;20071;-63
2022/06/04 13:17:54;;;;;;;18.90;13.18;;;22.70;99.90;;;;;;5049659;28;20722;-68
2022/06/04 13:20:33;;;;;;;20.27;14.52;;;22.90;99.90;;;;;;4985874;28;20057;-67
2022/06/04 13:23:09;;;;;;;25.83;16.60;;;22.90;99.90;;;;;;4988146;28;20113;-65
2022/06/04 13:25:41;;;;;;;23.40;16.73;;;22.90;99.90;;;;;;4987318;28;20046;-64
2022/06/04 13:28:24;;;;;;;25.80;17.33;;;22.90;99.90;;;;;;4988123;28;20487;-62
2022/06/04 13:30:52;;;;;;;17.55;12.18;;;22.90;99.90;;;;;;4987269;28;20054;-62
2022/06/04 13:33:20;;;;;;;19.27;12.90;;;23.10;99.90;;;;;;4987289;28;20069;-68